createdAt,value
2022-10-28T00:01:55.166Z,58.54
2022-10-28T00:04:25.738Z,59.56
2022-10-28T00:06:55.922Z,60.07
2022-10-28T00:09:25.633Z,60.54
2022-10-28T00:11:55.523Z,61.38
2022-10-28T00:14:26.078Z,62.55
2022-10-28T00:16:56.235Z,61.45
2022-10-28T00:19:25.846Z,61.85
2022-10-28T00:21:55.748Z,62.66
2022-10-28T00:24:25.902Z,63.27
2022-10-28T00:26:56.203Z,64.12
2022-10-28T00:29:25.712Z,63.28
2022-10-28T00:31:56.811Z,63.98
2022-10-28T00:34:26.942Z,66.51
2022-10-28T00:36:57.227Z,66.19
2022-10-28T00:39:28.837Z,66.62
2022-10-28T00:42:05.322Z,67.10
2022-10-28T00:44:55.591Z,66.38
2022-10-28T00:47:53.390Z,65.20
2022-10-28T00:50:35.960Z,66.54
2022-10-28T00:53:20.722Z,65.82
2022-10-28T00:55:52.740Z,67.23
2022-10-28T00:58:26.345Z,66.63
2022-10-28T01:00:56.903Z,67.26
2022-10-28T01:03:27.082Z,67.04
2022-10-28T01:05:56.988Z,66.21
2022-10-28T01:08:27.139Z,66.71
2022-10-28T01:11:14.770Z,66.96
2022-10-28T01:14:12.015Z,66.86
2022-10-28T01:17:02.609Z,65.15
2022-10-28T01:19:55.082Z,67.20
2022-10-28T01:22:38.340Z,67.76
2022-10-28T01:25:26.802Z,66.99
2022-10-28T01:28:27.649Z,67.44
2022-10-28T01:31:15.933Z,67.07
2022-10-28T01:33:55.854Z,68.62
2022-10-28T01:36:50.749Z,68.80
2022-10-28T01:39:32.241Z,68.16
2022-10-28T01:42:34.315Z,67.99
2022-10-28T01:45:23.037Z,68.61
2022-10-28T01:47:57.396Z,69.46
2022-10-28T01:50:31.159Z,69.39
2022-10-28T01:53:06.211Z,68.79
2022-10-28T01:55:40.092Z,69.44
2022-10-28T01:58:13.987Z,70.05
2022-10-28T02:00:45.993Z,69.97
2022-10-28T02:03:17.888Z,70.62
2022-10-28T02:05:54.738Z,71.28
2022-10-28T02:08:48.227Z,71.44
2022-10-28T02:11:34.622Z,71.16
2022-10-28T02:14:55.112Z,71.26
2022-10-28T02:17:43.336Z,72.04
2022-10-28T02:20:24.245Z,72.87
2022-10-28T02:23:14.801Z,73.82
2022-10-28T02:26:34.403Z,72.98
2022-10-28T02:29:25.842Z,72.98
2022-10-28T02:32:01.646Z,73.01
2022-10-28T02:34:41.569Z,73.20
2022-10-28T02:37:29.587Z,71.99
2022-10-28T02:40:03.845Z,71.70
2022-10-28T02:42:52.379Z,73.73
2022-10-28T02:45:42.359Z,70.75
2022-10-28T02:48:20.568Z,72.31
2022-10-28T02:50:59.444Z,72.51
2022-10-28T02:53:34.616Z,71.76
2022-10-28T02:56:08.041Z,71.54
2022-10-28T02:58:42.414Z,70.49
2022-10-28T03:01:12.783Z,70.90
2022-10-28T03:03:44.092Z,70.92
2022-10-28T03:06:14.353Z,72.93
2022-10-28T03:08:44.648Z,72.27
2022-10-28T03:11:14.821Z,72.27
2022-10-28T03:13:44.741Z,73.95
2022-10-28T03:16:14.677Z,73.12
2022-10-28T03:18:44.910Z,73.06
2022-10-28T03:21:15.094Z,74.31
2022-10-28T03:23:44.933Z,74.31
2022-10-28T03:26:15.042Z,75.08
2022-10-28T03:28:44.757Z,74.56
2022-10-28T03:31:16.337Z,76.22
2022-10-28T03:33:46.852Z,76.23
2022-10-28T03:36:16.477Z,75.09
2022-10-28T03:38:46.469Z,74.86
2022-10-28T03:41:16.594Z,74.69
2022-10-28T03:43:47.219Z,75.36
2022-10-28T03:46:17.440Z,74.98
2022-10-28T03:48:47.029Z,74.66
2022-10-28T03:51:17.101Z,74.50
2022-10-28T03:53:47.223Z,76.12
2022-10-28T03:56:17.699Z,76.04
2022-10-28T03:58:50.196Z,76.20
2022-10-28T04:01:20.583Z,75.29
2022-10-28T04:03:50.162Z,75.07
2022-10-28T04:06:20.029Z,75.17
2022-10-28T04:08:50.265Z,75.32
2022-10-28T04:11:19.973Z,74.43
2022-10-28T04:13:49.981Z,76.12
2022-10-28T04:16:20.270Z,76.02
2022-10-28T04:18:49.985Z,75.29
2022-10-28T04:21:20.159Z,75.81
2022-10-28T04:23:49.729Z,76.24
2022-10-28T04:26:19.706Z,77.77
2022-10-28T04:28:49.453Z,76.81
2022-10-28T04:31:19.435Z,77.31
2022-10-28T04:33:49.103Z,76.36
2022-10-28T04:36:19.352Z,77.98
2022-10-28T04:38:49.586Z,77.61
2022-10-28T04:41:19.931Z,77.03
2022-10-28T04:43:50.633Z,78.22
2022-10-28T04:46:20.821Z,77.47
2022-10-28T04:48:50.896Z,77.51
2022-10-28T04:51:20.561Z,76.90
2022-10-28T04:53:50.504Z,76.86
2022-10-28T04:56:20.901Z,77.33
2022-10-28T04:58:51.052Z,77.96
2022-10-28T05:01:21.311Z,77.79
2022-10-28T05:03:51.679Z,77.89
2022-10-28T05:06:21.859Z,78.00
2022-10-28T05:08:52.065Z,78.04
2022-10-28T05:11:22.210Z,78.11
2022-10-28T05:13:54.467Z,77.98
2022-10-28T05:16:25.009Z,79.67
2022-10-28T05:18:55.229Z,79.05
2022-10-28T05:21:24.874Z,78.19
2022-10-28T05:23:54.990Z,79.34
2022-10-28T05:26:24.769Z,78.87
2022-10-28T05:28:54.661Z,80.39
2022-10-28T05:31:25.017Z,80.02
2022-10-28T05:33:55.220Z,80.16
2022-10-28T05:36:25.256Z,80.22
2022-10-28T05:38:55.337Z,80.64
2022-10-28T05:41:25.542Z,81.09
2022-10-28T05:43:55.734Z,80.84
2022-10-28T05:46:26.412Z,81.01
2022-10-28T05:48:56.691Z,81.06
2022-10-28T05:51:26.617Z,80.76
2022-10-28T05:53:56.475Z,82.12
2022-10-28T05:56:26.730Z,82.03
2022-10-28T05:58:56.334Z,81.34
2022-10-28T06:01:26.172Z,82.49
2022-10-28T06:03:56.419Z,82.45
2022-10-28T06:06:26.752Z,82.48
2022-10-28T06:08:56.416Z,81.98
2022-10-28T06:11:24.863Z,83.32
2022-10-28T06:13:55.064Z,83.09
2022-10-28T06:16:25.085Z,83.68
2022-10-28T06:18:55.394Z,83.56
2022-10-28T06:21:25.279Z,81.99
2022-10-28T06:23:55.118Z,83.36
2022-10-28T06:26:24.986Z,83.46
2022-10-28T06:28:54.981Z,83.77
2022-10-28T06:31:25.351Z,84.09
2022-10-28T06:33:57.348Z,83.12
2022-10-28T06:36:27.702Z,83.20
2022-10-28T06:38:57.344Z,82.35
2022-10-28T06:41:27.412Z,83.66
2022-10-28T06:43:58.147Z,84.27
2022-10-28T06:46:27.956Z,83.53
2022-10-28T06:48:59.904Z,84.20
2022-10-28T06:51:30.208Z,84.86
2022-10-28T06:54:00.609Z,83.93
2022-10-28T06:56:30.747Z,85.34
2022-10-28T06:59:01.119Z,85.59
2022-10-28T07:01:30.731Z,84.64
2022-10-28T07:04:00.739Z,85.14
2022-10-28T07:06:30.856Z,85.78
2022-10-28T07:09:00.948Z,86.18
2022-10-28T07:11:31.247Z,86.28
2022-10-28T07:14:01.040Z,85.36
2022-10-28T07:16:31.148Z,85.85
2022-10-28T07:19:01.407Z,85.68
2022-10-28T07:21:31.550Z,86.30
2022-10-28T07:24:02.131Z,86.77
2022-10-28T07:26:32.284Z,86.78
2022-10-28T07:29:02.253Z,87.13
2022-10-28T07:31:32.690Z,87.55
2022-10-28T07:34:03.148Z,86.33
2022-10-28T07:36:33.484Z,87.33
2022-10-28T07:39:03.151Z,86.36
2022-10-28T07:41:33.493Z,88.17
2022-10-28T07:44:03.892Z,88.09
2022-10-28T07:46:33.506Z,87.80
2022-10-28T07:49:03.960Z,88.98
2022-10-28T07:51:34.532Z,88.45
2022-10-28T07:54:04.893Z,87.70
2022-10-28T07:56:34.589Z,86.65
2022-10-28T07:59:04.558Z,87.81
2022-10-28T08:01:34.378Z,86.76
2022-10-28T08:04:04.576Z,87.81
2022-10-28T08:06:37.206Z,88.05
2022-10-28T08:09:07.459Z,87.16
2022-10-28T08:11:37.637Z,87.46
2022-10-28T08:14:07.901Z,87.89
2022-10-28T08:16:38.116Z,88.39
2022-10-28T08:19:08.289Z,88.83
2022-10-28T08:21:37.930Z,88.72
2022-10-28T08:24:08.546Z,89.74
2022-10-28T08:26:38.716Z,89.62
2022-10-28T08:29:10.143Z,88.58
2022-10-28T08:31:41.176Z,89.70
2022-10-28T08:34:11.711Z,90.34
2022-10-28T08:36:42.011Z,90.19
2022-10-28T08:39:13.218Z,89.68
2022-10-28T08:41:57.170Z,89.99
2022-10-28T08:44:42.440Z,89.99
2022-10-28T08:47:50.524Z,90.38
2022-10-28T08:50:25.386Z,90.59
2022-10-28T08:53:05.881Z,90.39
2022-10-28T08:55:43.850Z,90.12
2022-10-28T08:58:15.418Z,90.74
2022-10-28T09:00:50.370Z,90.94
2022-10-28T09:03:24.984Z,90.37
2022-10-28T09:06:09.901Z,90.87
2022-10-28T09:08:46.542Z,90.73
2022-10-28T09:11:29.322Z,90.31
2022-10-28T09:13:59.040Z,89.59
2022-10-28T09:16:39.475Z,90.23
2022-10-28T09:19:45.815Z,90.38
2022-10-28T09:22:25.071Z,89.87
2022-10-28T09:25:19.255Z,89.36
2022-10-28T09:28:18.581Z,89.85
2022-10-28T09:31:06.572Z,89.32
2022-10-28T09:33:36.817Z,88.95
2022-10-28T09:36:11.779Z,88.97
2022-10-28T09:38:42.798Z,88.31
2022-10-28T09:41:40.030Z,87.82
2022-10-28T09:44:24.523Z,86.66
2022-10-28T09:46:58.931Z,86.96
2022-10-28T09:49:37.345Z,86.41
2022-10-28T09:52:13.955Z,86.21
2022-10-28T09:54:55.086Z,86.30
2022-10-28T09:57:32.236Z,84.91
2022-10-28T10:00:02.663Z,85.44
2022-10-28T10:02:41.349Z,84.79
2022-10-28T10:05:21.186Z,85.53
2022-10-28T10:07:57.833Z,84.73
2022-10-28T10:10:55.194Z,83.69
2022-10-28T10:13:37.322Z,83.63
2022-10-28T10:16:22.303Z,82.31
2022-10-28T10:18:59.327Z,83.33
2022-10-28T10:21:54.063Z,82.71
2022-10-28T10:24:47.000Z,82.09
2022-10-28T10:27:22.308Z,81.92
2022-10-28T10:29:54.503Z,82.04
2022-10-28T10:32:33.581Z,81.68
2022-10-28T10:35:19.637Z,79.46
2022-10-28T10:37:50.295Z,80.83
2022-10-28T10:40:32.207Z,79.98
2022-10-28T10:43:24.140Z,78.77
2022-10-28T10:46:06.571Z,79.93
2022-10-28T10:48:38.403Z,79.01
2022-10-28T10:51:12.418Z,78.64
2022-10-28T10:53:42.896Z,78.12
2022-10-28T10:56:16.785Z,77.71
2022-10-28T10:58:56.392Z,77.48
2022-10-28T11:01:34.399Z,75.91
2022-10-28T11:04:08.849Z,76.11
2022-10-28T11:06:41.222Z,75.28
2022-10-28T11:09:24.645Z,75.67
2022-10-28T11:11:58.136Z,75.78
2022-10-28T11:14:34.316Z,75.31
2022-10-28T11:17:06.007Z,76.19
2022-10-28T11:19:38.777Z,75.16
2022-10-28T11:22:30.059Z,74.57
2022-10-28T11:25:00.576Z,74.15
2022-10-28T11:27:55.517Z,74.70
2022-10-28T11:31:02.702Z,74.74
2022-10-28T11:33:45.838Z,73.09
2022-10-28T11:36:39.156Z,70.89
2022-10-28T11:39:35.664Z,69.42
2022-10-28T11:42:17.862Z,70.34
2022-10-28T11:45:00.693Z,70.14
2022-10-28T11:47:34.100Z,69.46
2022-10-28T11:50:16.253Z,68.96
2022-10-28T11:53:27.198Z,69.35
2022-10-28T11:56:00.164Z,69.15
2022-10-28T11:58:53.178Z,68.29
2022-10-28T12:01:28.987Z,68.05
2022-10-28T12:04:08.370Z,66.41
2022-10-28T12:07:01.462Z,65.12
2022-10-28T12:09:43.177Z,65.31
2022-10-28T12:12:38.459Z,64.78
2022-10-28T12:15:44.833Z,64.38
2022-10-28T12:18:30.010Z,61.97
2022-10-28T12:21:14.247Z,61.87
2022-10-28T12:23:45.378Z,63.21
2022-10-28T12:26:19.877Z,63.96
2022-10-28T12:29:03.610Z,63.58
2022-10-28T12:31:45.345Z,62.59
2022-10-28T12:34:24.107Z,62.87
2022-10-28T12:37:17.886Z,62.80
2022-10-28T12:40:14.236Z,62.60
2022-10-28T12:43:01.604Z,62.75
2022-10-28T12:45:33.630Z,61.90
2022-10-28T12:48:21.481Z,62.28
2022-10-28T12:51:14.158Z,59.30
2022-10-28T12:53:59.597Z,59.35
2022-10-28T12:56:39.397Z,60.80
2022-10-28T12:59:31.414Z,59.28
2022-10-28T13:02:03.221Z,59.42
2022-10-28T13:04:34.427Z,58.39
2022-10-28T13:07:37.837Z,58.24
2022-10-28T13:10:26.424Z,58.84
2022-10-28T13:13:24.363Z,55.44
2022-10-28T13:16:21.790Z,56.56
2022-10-28T13:19:16.569Z,53.45
2022-10-28T13:22:08.303Z,54.06
2022-10-28T13:24:50.794Z,54.35
2022-10-28T13:27:23.062Z,53.47
2022-10-28T13:29:56.629Z,53.10
2022-10-28T13:32:46.853Z,54.88
2022-10-28T13:35:30.987Z,54.47
2022-10-28T13:38:02.915Z,51.92
2022-10-28T13:40:32.984Z,51.18
2022-10-28T13:43:03.091Z,53.34
2022-10-28T13:45:56.685Z,52.45
2022-10-28T13:48:32.203Z,50.55
2022-10-28T13:51:11.228Z,49.60
2022-10-28T13:53:47.205Z,51.00
2022-10-28T13:56:29.343Z,50.84
2022-10-28T13:59:25.308Z,50.45
2022-10-28T14:02:35.023Z,49.12
2022-10-28T14:05:15.505Z,49.65
2022-10-28T14:08:04.934Z,47.13
2022-10-28T14:10:39.585Z,46.12
2022-10-28T14:13:21.752Z,47.43
2022-10-28T14:16:14.190Z,44.76
2022-10-28T14:18:53.422Z,45.09
2022-10-28T14:21:24.581Z,43.71
2022-10-28T14:24:34.005Z,47.03
2022-10-28T14:27:10.069Z,44.56
2022-10-28T14:29:58.372Z,45.02
2022-10-28T14:32:34.960Z,44.25
2022-10-28T14:35:23.544Z,44.60
2022-10-28T14:38:11.608Z,44.08
2022-10-28T14:41:07.086Z,42.83
2022-10-28T14:43:58.207Z,43.02
2022-10-28T14:46:40.524Z,42.67
2022-10-28T14:49:39.195Z,43.18
2022-10-28T14:52:20.832Z,42.58
2022-10-28T14:54:50.994Z,42.74
2022-10-28T14:57:24.442Z,43.11
2022-10-28T14:59:57.204Z,43.13
2022-10-28T15:02:32.946Z,44.91
2022-10-28T15:05:17.680Z,42.12
2022-10-28T15:07:49.240Z,41.65
2022-10-28T15:10:29.685Z,41.09
2022-10-28T15:13:00.437Z,40.88
2022-10-28T15:15:33.133Z,42.84
2022-10-28T15:18:03.651Z,40.53
2022-10-28T15:20:36.945Z,41.09
2022-10-28T15:23:17.312Z,40.33
2022-10-28T15:25:48.208Z,41.13
2022-10-28T15:28:18.475Z,42.18
2022-10-28T15:30:48.787Z,40.05
2022-10-28T15:33:33.196Z,39.91
2022-10-28T15:36:18.083Z,38.81
2022-10-28T15:39:09.006Z,37.78
2022-10-28T15:41:45.384Z,38.53
2022-10-28T15:44:33.539Z,39.91
2022-10-28T15:47:29.947Z,40.33
2022-10-28T15:50:27.500Z,41.10
2022-10-28T15:53:33.486Z,39.79
2022-10-28T15:56:30.835Z,41.43
2022-10-28T15:59:01.135Z,39.87
2022-10-28T16:01:41.480Z,40.15
2022-10-28T16:04:20.492Z,39.20
2022-10-28T16:06:56.025Z,37.75
2022-10-28T16:09:49.731Z,38.27
2022-10-28T16:12:24.600Z,38.69
2022-10-28T16:15:02.357Z,37.91
2022-10-28T16:17:36.275Z,40.53
2022-10-28T16:20:18.931Z,39.57
2022-10-28T16:22:49.705Z,40.44
2022-10-28T16:25:22.986Z,40.75
2022-10-28T16:27:53.489Z,39.16
2022-10-28T16:30:23.952Z,40.62
2022-10-28T16:32:54.257Z,40.77
2022-10-28T16:35:25.639Z,39.46
2022-10-28T16:37:56.048Z,39.83
2022-10-28T16:43:21.610Z,41.61
2022-10-28T16:45:53.640Z,41.19
2022-10-28T16:48:26.069Z,41.30
2022-10-28T16:50:59.573Z,40.23
2022-10-28T16:53:30.152Z,40.84
2022-10-28T16:56:00.364Z,41.34
2022-10-28T16:58:31.380Z,40.13
2022-10-28T17:01:02.351Z,39.94
2022-10-28T17:03:32.661Z,40.13
2022-10-28T17:06:03.062Z,41.33
2022-10-28T17:11:24.085Z,42.20
2022-10-28T17:13:54.362Z,42.05
2022-10-28T17:16:24.637Z,41.06
2022-10-28T17:18:54.842Z,41.98
2022-10-28T17:21:24.997Z,40.19
2022-10-28T17:23:55.097Z,41.35
2022-10-28T17:26:25.517Z,41.74
2022-10-28T17:28:55.824Z,40.87
2022-10-28T17:31:26.802Z,41.63
2022-10-28T17:33:57.306Z,41.23
2022-10-28T17:36:27.611Z,41.69
2022-10-28T17:38:57.736Z,41.62
2022-10-28T17:41:27.823Z,42.09
2022-10-28T17:43:58.130Z,42.03
2022-10-28T17:46:28.305Z,41.92
2022-10-28T17:48:58.460Z,41.38
2022-10-28T17:51:46.920Z,40.72
2022-10-28T17:54:17.210Z,42.94
2022-10-28T17:56:48.950Z,41.52
2022-10-28T17:59:20.021Z,40.89
2022-10-28T18:01:50.611Z,41.64
2022-10-28T18:04:21.343Z,41.98
2022-10-28T18:06:51.780Z,40.99
2022-10-28T18:09:22.157Z,41.26
2022-10-28T18:11:53.443Z,40.90
2022-10-28T18:14:23.717Z,40.67
2022-10-28T18:16:54.143Z,41.14
2022-10-28T18:19:24.372Z,41.16
2022-10-28T18:21:54.751Z,40.35
2022-10-28T18:24:26.126Z,40.91
2022-10-28T18:26:58.223Z,41.91
2022-10-28T18:29:28.532Z,40.76
2022-10-28T18:31:58.697Z,42.20
2022-10-28T18:34:29.325Z,41.20
2022-10-28T18:36:59.761Z,40.55
2022-10-28T18:39:32.037Z,40.92
2022-10-28T18:42:02.256Z,39.27
2022-10-28T18:44:33.150Z,39.69
2022-10-28T18:47:03.385Z,40.08
2022-10-28T18:49:33.590Z,40.03
2022-10-28T18:52:03.790Z,40.19
2022-10-28T18:54:35.383Z,39.20
2022-10-28T18:57:05.556Z,37.66
2022-10-28T18:59:43.277Z,36.95
2022-10-28T19:02:23.076Z,38.90
2022-10-28T19:04:53.495Z,38.03
2022-10-28T19:07:23.737Z,35.44
2022-10-28T19:09:53.893Z,37.27
2022-10-28T19:12:24.516Z,37.13
2022-10-28T19:14:54.530Z,35.48
2022-10-28T19:17:24.717Z,36.30
2022-10-28T19:19:54.797Z,37.85
2022-10-28T19:22:24.999Z,38.29
2022-10-28T19:24:55.362Z,39.35
2022-10-28T19:27:25.658Z,38.00
2022-10-28T19:29:56.370Z,39.78
2022-10-28T19:32:26.660Z,39.25
2022-10-28T19:34:56.873Z,40.50
2022-10-28T19:37:28.295Z,40.18
2022-10-28T19:39:58.356Z,41.54
2022-10-28T19:42:28.700Z,40.86
2022-10-28T19:44:58.957Z,37.00
2022-10-28T19:47:29.671Z,35.68
2022-10-28T19:49:59.782Z,35.51
2022-10-28T19:52:29.854Z,39.19
2022-10-28T19:54:59.873Z,40.50
2022-10-28T19:57:30.283Z,39.41
2022-10-28T20:00:00.624Z,41.40
2022-10-28T20:02:41.141Z,41.06
2022-10-28T20:05:11.620Z,41.58
2022-10-28T20:07:41.904Z,40.48
2022-10-28T20:10:12.189Z,40.12
2022-10-28T20:12:42.857Z,37.60
2022-10-28T20:15:13.148Z,39.45
2022-10-28T20:17:43.393Z,38.89
2022-10-28T20:20:15.150Z,39.30
2022-10-28T20:22:45.459Z,39.53
2022-10-28T20:25:15.579Z,40.43
2022-10-28T20:27:45.851Z,41.49
2022-10-28T20:30:16.154Z,41.20
2022-10-28T20:32:47.015Z,42.13
2022-10-28T20:35:18.395Z,41.83
2022-10-28T20:37:48.738Z,41.94
2022-10-28T20:40:19.003Z,43.49
2022-10-28T20:42:49.433Z,43.29
2022-10-28T20:45:19.557Z,42.96
2022-10-28T20:47:49.848Z,42.02
2022-10-28T20:50:20.265Z,42.38
2022-10-28T20:52:50.503Z,42.81
2022-10-28T20:55:20.731Z,43.13
2022-10-28T20:57:51.051Z,43.16
2022-10-28T21:00:21.144Z,43.55
2022-10-28T21:02:55.245Z,44.11
2022-10-28T21:05:25.895Z,43.67
2022-10-28T21:07:56.271Z,43.83
2022-10-28T21:10:26.693Z,44.80
2022-10-28T21:12:57.957Z,43.96
2022-10-28T21:15:28.759Z,45.22
2022-10-28T21:17:59.413Z,44.76
2022-10-28T21:20:30.573Z,44.99
2022-10-28T21:23:01.795Z,45.67
2022-10-28T21:25:32.442Z,46.01
2022-10-28T21:28:02.956Z,46.34
2022-10-28T21:30:33.230Z,46.04
2022-10-28T21:33:04.988Z,47.20
2022-10-28T21:35:35.454Z,46.87
2022-10-28T21:38:05.682Z,47.40
2022-10-28T21:40:35.847Z,47.83
2022-10-28T21:43:05.543Z,48.70
2022-10-28T21:45:35.736Z,49.02
2022-10-28T21:48:05.994Z,50.27
2022-10-28T21:50:36.188Z,51.43
2022-10-28T21:53:06.588Z,51.95
2022-10-28T21:55:46.907Z,52.91
2022-10-28T21:58:19.230Z,53.50
2022-10-28T22:00:49.454Z,54.17
2022-10-28T22:03:19.752Z,54.95
2022-10-28T22:05:52.976Z,55.76
2022-10-28T22:08:23.238Z,56.62
2022-10-28T22:11:03.716Z,57.25
2022-10-28T22:13:34.920Z,57.97
2022-10-28T22:16:07.997Z,58.35
2022-10-28T22:18:39.416Z,59.05
2022-10-28T22:21:15.330Z,59.57
2022-10-28T22:23:46.154Z,59.92
2022-10-28T22:26:20.694Z,60.23
2022-10-28T22:28:55.139Z,60.45
2022-10-28T22:31:32.573Z,60.67
2022-10-28T22:34:03.396Z,61.09
2022-10-28T22:36:33.674Z,61.24
2022-10-28T22:39:04.397Z,61.57
2022-10-28T22:41:34.922Z,62.40
2022-10-28T22:44:06.016Z,62.27
2022-10-28T22:46:37.745Z,62.47
2022-10-28T22:49:08.160Z,62.56
2022-10-28T22:51:38.468Z,62.56
2022-10-28T22:54:08.815Z,63.06
2022-10-28T22:56:39.679Z,63.69
2022-10-28T22:59:10.044Z,63.64
2022-10-28T23:01:41.263Z,63.72
2022-10-28T23:04:13.349Z,64.15
2022-10-28T23:06:43.596Z,64.19
2022-10-28T23:09:14.028Z,64.76
2022-10-28T23:11:44.304Z,64.68
2022-10-28T23:14:15.008Z,65.39
2022-10-28T23:16:45.220Z,65.36
2022-10-28T23:19:14.911Z,64.44
2022-10-28T23:21:45.152Z,65.43
2022-10-28T23:24:15.699Z,66.01
2022-10-28T23:26:46.221Z,66.13
2022-10-28T23:29:16.813Z,66.89
2022-10-28T23:31:47.203Z,66.64
2022-10-28T23:34:17.648Z,67.41
2022-10-28T23:36:47.948Z,67.25
2022-10-28T23:39:18.445Z,67.26
2022-10-28T23:41:49.396Z,66.80
2022-10-28T23:44:19.859Z,67.32
2022-10-28T23:46:50.126Z,67.00
2022-10-28T23:49:20.798Z,69.02
2022-10-28T23:51:51.182Z,68.65
2022-10-28T23:54:21.568Z,68.19
2022-10-28T23:56:51.896Z,67.88
2022-10-28T23:59:22.160Z,68.07
